createdAt,value
2022-10-17T00:00:10.864Z,13.22
2022-10-17T00:04:27.953Z,13.19
2022-10-17T00:08:25.912Z,13.17
2022-10-17T00:12:22.414Z,13.16
2022-10-17T00:16:30.083Z,13.09
2022-10-17T00:20:06.945Z,13.11
2022-10-17T00:24:07.128Z,13.05
2022-10-17T00:28:04.109Z,13.00
2022-10-17T00:32:01.653Z,12.94
2022-10-17T00:36:18.929Z,12.87
2022-10-17T00:40:16.144Z,12.74
2022-10-17T00:44:32.148Z,12.72
2022-10-17T00:48:28.897Z,12.74
2022-10-17T00:52:30.193Z,12.72
2022-10-17T00:56:28.136Z,12.71
2022-10-17T01:00:25.406Z,12.73
2022-10-17T01:04:22.567Z,12.76
2022-10-17T01:08:19.897Z,12.71
2022-10-17T01:12:24.266Z,12.62
2022-10-17T01:16:39.678Z,12.58
2022-10-17T01:21:19.909Z,12.59
2022-10-17T01:25:35.708Z,12.54
2022-10-17T01:29:58.289Z,12.59
2022-10-17T01:34:12.731Z,12.63
2022-10-17T01:38:21.238Z,12.66
2022-10-17T01:42:54.142Z,12.57
2022-10-17T01:47:00.542Z,12.53
2022-10-17T01:51:06.689Z,12.52
2022-10-17T01:55:09.544Z,12.53
2022-10-17T01:59:22.529Z,12.48
2022-10-17T02:03:41.168Z,12.43
2022-10-17T02:06:56.848Z,12.37
2022-10-17T02:11:07.249Z,12.36
2022-10-17T02:15:20.629Z,12.35
2022-10-17T02:19:52.034Z,12.33
2022-10-17T02:24:21.477Z,12.32
2022-10-17T02:28:31.708Z,12.27
2022-10-17T02:32:42.801Z,12.25
2022-10-17T02:36:56.142Z,12.27
2022-10-17T02:40:54.618Z,12.35
2022-10-17T02:44:54.254Z,12.36
2022-10-17T02:49:02.074Z,12.34
2022-10-17T02:53:07.604Z,12.34
2022-10-17T02:57:17.265Z,12.31
2022-10-17T03:01:23.355Z,12.27
2022-10-17T03:05:29.655Z,12.23
2022-10-17T03:09:26.869Z,12.22
2022-10-17T03:13:24.334Z,12.18
2022-10-17T03:17:21.397Z,12.20
2022-10-17T03:21:18.540Z,12.24
2022-10-17T03:25:16.415Z,12.25
2022-10-17T03:29:14.254Z,12.21
2022-10-17T03:33:14.630Z,12.22
2022-10-17T03:37:11.989Z,12.21
2022-10-17T03:41:10.132Z,12.22
2022-10-17T03:45:07.744Z,12.26
2022-10-17T03:49:04.694Z,12.29
2022-10-17T03:53:02.274Z,12.30
2022-10-17T03:56:59.656Z,12.29
2022-10-17T04:00:56.746Z,12.33
2022-10-17T04:04:54.153Z,12.37
2022-10-17T04:08:51.728Z,12.37
2022-10-17T04:12:48.790Z,12.37
2022-10-17T04:16:45.837Z,12.45
2022-10-17T04:20:42.890Z,12.52
2022-10-17T04:24:40.265Z,12.57
2022-10-17T04:32:39.901Z,12.68
2022-10-17T04:36:38.398Z,12.70
2022-10-17T04:40:36.645Z,12.70
2022-10-17T04:44:35.979Z,12.66
2022-10-17T04:48:12.169Z,12.62
2022-10-17T04:51:51.498Z,12.55
2022-10-17T04:55:27.738Z,12.50
2022-10-17T04:59:05.277Z,12.48
2022-10-17T05:02:43.002Z,12.48
2022-10-17T05:06:24.862Z,12.56
2022-10-17T05:10:00.991Z,12.59
2022-10-17T05:13:38.887Z,12.61
2022-10-17T05:17:16.854Z,12.66
2022-10-17T05:20:54.617Z,12.78
2022-10-17T05:24:32.054Z,12.90
2022-10-17T05:28:09.756Z,12.98
2022-10-17T05:31:51.977Z,13.06
2022-10-17T05:35:30.895Z,12.98
2022-10-17T05:39:07.368Z,12.88
2022-10-17T05:42:49.283Z,12.89
2022-10-17T05:46:26.972Z,12.97
2022-10-17T05:50:03.111Z,13.02
2022-10-17T05:53:42.315Z,13.09
2022-10-17T05:57:19.492Z,13.18
2022-10-17T06:01:03.915Z,13.23
2022-10-17T06:04:45.629Z,13.27
2022-10-17T06:08:22.284Z,13.28
2022-10-17T06:12:00.470Z,13.26
2022-10-17T06:15:37.025Z,13.30
2022-10-17T06:19:14.899Z,13.23
2022-10-17T06:22:52.871Z,13.31
2022-10-17T06:26:30.233Z,13.56
2022-10-17T06:30:08.829Z,13.67
2022-10-17T06:33:45.520Z,13.63
2022-10-17T06:37:23.082Z,13.77
2022-10-17T06:41:14.286Z,13.97
2022-10-17T06:44:50.354Z,14.22
2022-10-17T06:48:27.899Z,14.30
2022-10-17T06:52:24.536Z,14.44
2022-10-17T06:55:43.612Z,14.54
2022-10-17T06:59:22.655Z,14.81
2022-10-17T07:02:58.608Z,15.00
2022-10-17T07:06:38.007Z,15.03
2022-10-17T07:10:14.305Z,15.33
2022-10-17T07:13:54.925Z,15.65
2022-10-17T07:17:32.178Z,16.05
2022-10-17T07:21:09.121Z,16.03
2022-10-17T07:24:46.514Z,16.25
2022-10-17T07:28:23.998Z,16.27
2022-10-17T07:32:04.124Z,16.55
2022-10-17T07:35:43.406Z,16.98
2022-10-17T07:39:20.669Z,17.16
2022-10-17T07:42:57.295Z,17.40
2022-10-17T07:46:36.267Z,17.64
2022-10-17T07:50:12.770Z,17.90
2022-10-17T07:53:51.115Z,18.18
2022-10-17T07:57:30.400Z,18.48
2022-10-17T08:01:15.655Z,18.85
2022-10-17T08:04:59.984Z,19.28
2022-10-17T08:08:37.931Z,19.71
2022-10-17T08:12:15.850Z,19.32
2022-10-17T08:15:53.070Z,18.74
2022-10-17T08:19:31.365Z,18.46
2022-10-17T08:23:08.520Z,18.44
2022-10-17T08:26:48.233Z,18.44
2022-10-17T08:30:30.942Z,18.58
2022-10-17T08:34:08.368Z,18.68
2022-10-17T08:37:45.710Z,19.25
2022-10-17T08:41:45.725Z,19.60
2022-10-17T08:45:38.175Z,19.50
2022-10-17T08:49:47.533Z,20.34
2022-10-17T08:53:48.007Z,21.25
2022-10-17T08:57:24.305Z,21.28
2022-10-17T09:01:12.678Z,21.41
2022-10-17T09:05:29.534Z,21.78
2022-10-17T09:09:24.708Z,22.26
2022-10-17T09:13:25.167Z,22.37
2022-10-17T09:17:35.362Z,23.20
2022-10-17T09:21:17.669Z,23.65
2022-10-17T09:25:06.988Z,23.74
2022-10-17T09:28:44.576Z,24.81
2022-10-17T09:32:25.891Z,25.60
2022-10-17T09:36:05.671Z,25.61
2022-10-17T09:40:00.973Z,25.46
2022-10-17T09:43:20.487Z,25.20
2022-10-17T09:47:05.896Z,25.25
2022-10-17T09:50:48.264Z,24.84
2022-10-17T09:54:43.397Z,25.41
2022-10-17T09:58:21.372Z,25.28
2022-10-17T10:02:19.273Z,25.91
2022-10-17T10:06:05.454Z,26.67
2022-10-17T10:09:48.784Z,27.12
2022-10-17T10:13:27.795Z,26.86
2022-10-17T10:17:06.457Z,27.51
2022-10-17T10:20:46.969Z,27.91
2022-10-17T10:24:30.612Z,28.32
2022-10-17T10:28:12.420Z,28.22
2022-10-17T10:31:49.969Z,28.15
2022-10-17T10:35:34.617Z,27.70
2022-10-17T10:39:40.309Z,28.36
2022-10-17T10:43:41.651Z,28.98
2022-10-17T10:47:20.301Z,29.13
2022-10-17T10:51:14.531Z,29.29
2022-10-17T10:54:59.766Z,28.45
2022-10-17T10:58:50.855Z,28.03
2022-10-17T11:02:31.047Z,28.30
2022-10-17T11:06:19.345Z,27.52
2022-10-17T11:10:03.175Z,27.80
2022-10-17T11:13:54.263Z,27.74
2022-10-17T11:17:32.045Z,27.37
2022-10-17T11:21:20.122Z,27.51
2022-10-17T11:25:32.538Z,27.13
2022-10-17T11:29:32.369Z,27.33
2022-10-17T11:32:53.911Z,27.33
2022-10-17T11:36:33.775Z,26.67
2022-10-17T11:40:33.974Z,27.14
2022-10-17T11:44:22.268Z,26.56
2022-10-17T11:48:10.868Z,27.35
2022-10-17T11:52:43.995Z,27.44
2022-10-17T11:56:42.680Z,28.58
2022-10-17T12:00:42.756Z,28.61
2022-10-17T12:04:49.713Z,28.93
2022-10-17T12:09:01.803Z,28.82
2022-10-17T12:12:40.559Z,29.37
2022-10-17T12:16:19.790Z,29.23
2022-10-17T12:20:18.831Z,28.47
2022-10-17T12:23:56.028Z,27.64
2022-10-17T12:28:13.379Z,26.60
2022-10-17T12:31:49.513Z,26.47
2022-10-17T12:35:28.977Z,27.66
2022-10-17T12:39:07.802Z,27.31
2022-10-17T12:42:49.753Z,26.64
2022-10-17T12:46:44.446Z,26.99
2022-10-17T12:51:17.665Z,27.74
2022-10-17T12:55:12.658Z,28.05
2022-10-17T12:59:16.216Z,26.54
2022-10-17T13:02:55.571Z,26.55
2022-10-17T13:06:38.068Z,28.76
2022-10-17T13:10:22.320Z,28.05
2022-10-17T13:14:01.284Z,28.31
2022-10-17T13:17:43.036Z,29.19
2022-10-17T13:21:21.149Z,29.56
2022-10-17T13:25:19.995Z,29.53
2022-10-17T13:29:07.446Z,29.61
2022-10-17T13:32:45.809Z,28.23
2022-10-17T13:36:21.897Z,27.35
2022-10-17T13:40:06.965Z,27.62
2022-10-17T13:43:58.345Z,27.87
2022-10-17T13:47:39.420Z,28.12
2022-10-17T13:51:16.954Z,28.03
2022-10-17T13:54:54.807Z,27.74
2022-10-17T13:58:44.183Z,27.62
2022-10-17T14:02:29.518Z,27.05
2022-10-17T14:06:15.658Z,26.00
2022-10-17T14:09:52.261Z,27.00
2022-10-17T14:13:36.180Z,26.32
2022-10-17T14:17:25.207Z,25.12
2022-10-17T14:25:03.726Z,24.09
2022-10-17T14:28:41.762Z,23.85
2022-10-17T14:32:22.336Z,23.41
2022-10-17T14:36:03.873Z,23.14
2022-10-17T14:39:41.069Z,22.90
2022-10-17T14:43:23.957Z,22.76
2022-10-17T14:47:30.154Z,22.71
2022-10-17T14:51:18.604Z,22.64
2022-10-17T14:54:56.344Z,22.55
2022-10-17T14:58:33.946Z,22.38
2022-10-17T15:02:15.124Z,22.33
2022-10-17T15:05:52.927Z,22.14
2022-10-17T15:09:30.124Z,21.97
2022-10-17T15:13:27.067Z,21.87
2022-10-17T15:17:05.745Z,21.72
2022-10-17T15:20:41.715Z,21.55
2022-10-17T15:24:19.593Z,21.43
2022-10-17T15:27:57.840Z,21.20
2022-10-17T15:31:36.459Z,21.12
2022-10-17T15:35:14.057Z,21.05
2022-10-17T15:38:53.663Z,20.99
2022-10-17T15:42:30.998Z,20.85
2022-10-17T15:46:14.389Z,20.74
2022-10-17T15:49:51.537Z,20.62
2022-10-17T15:53:28.413Z,20.46
2022-10-17T15:57:06.431Z,20.38
2022-10-17T16:00:44.231Z,20.27
2022-10-17T16:04:22.079Z,20.20
2022-10-17T16:07:58.894Z,20.05
2022-10-17T16:11:55.684Z,19.92
2022-10-17T16:15:20.989Z,19.80
2022-10-17T16:19:16.500Z,19.76
2022-10-17T16:22:40.826Z,19.64
2022-10-17T16:26:17.674Z,19.55
2022-10-17T16:29:54.645Z,19.47
2022-10-17T16:33:32.452Z,19.36
2022-10-17T16:37:10.219Z,19.29
2022-10-17T16:40:47.844Z,19.18
2022-10-17T16:44:25.196Z,19.09
2022-10-17T16:48:03.182Z,19.04
2022-10-17T16:51:40.644Z,18.98
2022-10-17T16:55:19.565Z,18.93
2022-10-17T16:58:57.096Z,18.85
2022-10-17T17:02:34.877Z,18.79
2022-10-17T17:06:20.954Z,18.73
2022-10-17T17:09:57.297Z,18.58
2022-10-17T17:13:35.915Z,18.48
2022-10-17T17:17:19.623Z,18.35
2022-10-17T17:21:09.723Z,18.26
2022-10-17T17:24:47.274Z,18.22
2022-10-17T17:28:24.285Z,18.13
2022-10-17T17:32:01.222Z,18.06
2022-10-17T17:35:41.529Z,17.96
2022-10-17T17:39:17.727Z,17.83
2022-10-17T17:42:56.112Z,17.74
2022-10-17T17:46:33.659Z,17.62
2022-10-17T17:50:11.566Z,17.55
2022-10-17T17:53:49.577Z,17.50
2022-10-17T17:57:26.370Z,17.42
2022-10-17T18:01:14.310Z,17.32
2022-10-17T18:04:51.905Z,17.18
2022-10-17T18:08:30.425Z,17.14
2022-10-17T18:12:07.722Z,17.06
2022-10-17T18:15:44.955Z,17.03
2022-10-17T18:19:24.101Z,17.03
2022-10-17T18:23:03.398Z,16.99
2022-10-17T18:26:40.498Z,16.99
2022-10-17T18:30:20.164Z,16.87
2022-10-17T18:34:02.898Z,16.81
2022-10-17T18:37:39.320Z,16.75
2022-10-17T18:41:19.820Z,16.74
2022-10-17T18:44:56.412Z,16.73
2022-10-17T18:48:34.586Z,16.65
2022-10-17T18:52:11.578Z,16.61
2022-10-17T18:55:51.335Z,16.62
2022-10-17T18:59:28.250Z,16.52
2022-10-17T19:03:05.359Z,16.49
2022-10-17T19:06:44.638Z,16.50
2022-10-17T19:10:20.595Z,16.43
2022-10-17T19:14:02.148Z,16.41
2022-10-17T19:17:38.263Z,16.38
2022-10-17T19:21:21.523Z,16.31
2022-10-17T19:24:59.018Z,16.22
2022-10-17T19:28:39.448Z,16.15
2022-10-17T19:32:17.971Z,16.07
2022-10-17T19:35:59.345Z,16.01
2022-10-17T19:39:37.277Z,15.98
2022-10-17T19:43:14.901Z,15.89
2022-10-17T19:46:54.734Z,15.80
2022-10-17T19:50:32.028Z,15.73
2022-10-17T19:54:09.416Z,15.67
2022-10-17T19:57:48.257Z,15.65
2022-10-17T20:01:29.004Z,15.64
2022-10-17T20:05:18.422Z,15.63
2022-10-17T20:08:56.878Z,15.54
2022-10-17T20:12:35.247Z,15.51
2022-10-17T20:16:18.485Z,15.50
2022-10-17T20:19:54.538Z,15.44
2022-10-17T20:23:33.160Z,15.37
2022-10-17T20:27:09.961Z,15.31
2022-10-17T20:30:49.197Z,15.31
2022-10-17T20:34:26.802Z,15.26
2022-10-17T20:38:02.997Z,15.16
2022-10-17T20:41:59.727Z,15.18
2022-10-17T20:45:18.695Z,15.12
2022-10-17T20:48:59.230Z,15.08
2022-10-17T20:52:37.667Z,15.01
2022-10-17T20:56:20.561Z,14.99
2022-10-17T20:59:57.055Z,14.93
2022-10-17T21:03:42.322Z,14.88
2022-10-17T21:07:22.600Z,14.81
2022-10-17T21:11:20.390Z,14.74
2022-10-17T21:14:56.652Z,14.70
2022-10-17T21:18:34.472Z,14.63
2022-10-17T21:22:11.982Z,14.61
2022-10-17T21:25:49.752Z,14.56
2022-10-17T21:29:27.356Z,14.53
2022-10-17T21:33:05.675Z,14.50
2022-10-17T21:36:42.977Z,14.49
2022-10-17T21:40:20.766Z,14.43
2022-10-17T21:44:01.015Z,14.42
2022-10-17T21:47:38.542Z,14.39
2022-10-17T21:51:18.795Z,14.35
2022-10-17T21:54:54.677Z,14.30
2022-10-17T21:58:33.378Z,14.30
2022-10-17T22:02:10.163Z,14.25
2022-10-17T22:05:48.274Z,14.23
2022-10-17T22:09:26.710Z,14.13
2022-10-17T22:13:04.905Z,14.10
2022-10-17T22:16:41.910Z,14.06
2022-10-17T22:20:18.780Z,13.97
2022-10-17T22:24:02.915Z,13.97
2022-10-17T22:27:38.894Z,13.94
2022-10-17T22:31:16.605Z,13.89
2022-10-17T22:34:54.710Z,13.89
2022-10-17T22:38:33.596Z,13.88
2022-10-17T22:42:10.376Z,13.87
2022-10-17T22:45:58.828Z,13.84
2022-10-17T22:49:35.158Z,13.82
2022-10-17T22:53:12.646Z,13.80
2022-10-17T23:08:01.415Z,13.68
2022-10-17T23:11:23.837Z,13.67
2022-10-17T23:14:59.534Z,13.65
2022-10-17T23:18:38.819Z,13.61
2022-10-17T23:22:14.599Z,13.60
2022-10-17T23:25:53.102Z,13.62
2022-10-17T23:29:33.857Z,13.57
2022-10-17T23:33:13.032Z,13.53
2022-10-17T23:36:50.049Z,13.49
2022-10-17T23:40:28.408Z,13.51
2022-10-17T23:55:33.495Z,13.38
